Time;durP1;ratioP1;P1;durP2;ratioP2;P2;SDS_P1;SDS_P2;PMS_P1;PMS_P2;Temp;Humidity;BMP_temperature;BMP_pressure;BME280_temperature;BME280_humidity;BME280_pressure;Samples;Min_cycle;Max_cycle;Signal;HPM_P1;HPM_P2
2022/06/25 00:01:19;;;;;;;2.87;1.90;;;20.00;24.30;;;;;;5052384;28;20175;-86
2022/06/25 00:03:46;;;;;;;3.63;2.03;;;19.90;23.10;;;;;;5029286;28;20232;-85
2022/06/25 00:06:12;;;;;;;2.70;1.93;;;19.90;23.30;;;;;;5024078;28;20206;-84
2022/06/25 00:08:48;;;;;;;2.77;1.77;;;19.80;25.50;;;;;;5034426;28;20634;-83
2022/06/25 00:14:09;;;;;;;4.07;2.33;;;19.80;23.30;;;;;;5033858;28;20189;-84
2022/06/25 00:16:35;;;;;;;6.30;2.30;;;19.80;24.10;;;;;;5014768;28;20571;-83
2022/06/25 00:19:01;;;;;;;4.27;2.20;;;19.80;25.40;;;;;;5016087;28;20219;-83
2022/06/25 00:21:27;;;;;;;3.90;2.10;;;19.80;24.30;;;;;;5015868;28;20182;-84
2022/06/25 00:23:54;;;;;;;3.40;2.20;;;19.80;25.70;;;;;;5016307;28;20205;-84
2022/06/25 00:26:20;;;;;;;3.57;2.10;;;19.80;23.90;;;;;;4999441;28;21016;-83
2022/06/25 00:28:46;;;;;;;3.87;2.23;;;19.80;23.00;;;;;;5015677;28;20222;-85
2022/06/25 00:31:11;;;;;;;4.67;2.43;;;19.80;23.90;;;;;;5016415;28;20176;-85
2022/06/25 00:33:37;;;;;;;3.40;2.03;;;19.70;25.10;;;;;;5016135;28;20508;-84
2022/06/25 00:36:03;;;;;;;5.10;2.47;;;19.70;26.10;;;;;;5019396;28;20175;-82
2022/06/25 00:38:30;;;;;;;2.87;1.90;;;19.70;26.80;;;;;;5042156;28;20182;-84
2022/06/25 00:40:55;;;;;;;3.53;2.40;;;19.70;26.80;;;;;;5043817;28;20165;-82
2022/06/25 00:43:21;;;;;;;3.00;2.03;;;19.70;27.10;;;;;;5055868;28;20217;-81
2022/06/25 00:45:47;;;;;;;4.40;2.07;;;19.60;28.80;;;;;;5043040;28;20183;-82
2022/06/25 00:48:12;;;;;;;3.93;2.07;;;19.60;29.90;;;;;;5044054;28;20178;-82
2022/06/25 00:50:38;;;;;;;3.57;2.37;;;19.60;30.10;;;;;;5031657;28;20641;-85
2022/06/25 00:53:04;;;;;;;3.77;2.00;;;19.60;29.40;;;;;;5022766;28;20175;-83
2022/06/25 00:55:31;;;;;;;3.43;1.90;;;19.60;29.10;;;;;;5040379;28;20176;-83
2022/06/25 00:58:01;;;;;;;6.23;2.43;;;19.60;27.20;;;;;;5022040;28;20176;-82
2022/06/25 01:00:30;;;;;;;3.67;2.30;;;19.60;29.20;;;;;;5021562;28;20212;-82
2022/06/25 01:03:02;;;;;;;3.63;2.10;;;19.60;28.70;;;;;;5021980;28;20216;-82
2022/06/25 01:05:27;;;;;;;3.83;2.50;;;19.60;28.00;;;;;;5023163;28;20313;-84
2022/06/25 01:07:53;;;;;;;3.27;1.93;;;19.50;29.20;;;;;;5021434;28;20222;-83
2022/06/25 01:10:19;;;;;;;2.90;2.27;;;19.50;28.20;;;;;;5022438;28;20177;-84
2022/06/25 01:12:45;;;;;;;4.40;2.60;;;19.50;28.80;;;;;;5021553;28;20270;-83
2022/06/25 01:15:19;;;;;;;5.33;2.17;;;19.40;29.60;;;;;;5044033;28;20183;-84
2022/06/25 01:17:47;;;;;;;3.27;2.33;;;19.40;30.30;;;;;;5022557;28;20238;-82
2022/06/25 01:20:14;;;;;;;4.70;2.13;;;19.40;30.60;;;;;;5025666;28;20196;-82
2022/06/25 01:22:40;;;;;;;6.07;2.80;;;19.30;32.00;;;;;;5024945;28;20195;-82
2022/06/25 01:25:12;;;;;;;3.17;2.37;;;19.40;29.70;;;;;;5023433;28;20171;-82
2022/06/25 01:27:39;;;;;;;4.90;2.27;;;19.50;29.70;;;;;;5038624;28;20201;-80
2022/06/25 01:30:07;;;;;;;4.73;2.47;;;19.40;30.00;;;;;;5039019;28;20233;-81
2022/06/25 01:32:33;;;;;;;4.93;2.50;;;19.30;32.00;;;;;;5039299;28;20178;-84
2022/06/25 01:34:59;;;;;;;4.10;2.30;;;19.30;32.80;;;;;;5021866;28;20254;-83
2022/06/25 01:37:25;;;;;;;4.57;2.33;;;19.30;33.10;;;;;;5030863;28;20179;-85
2022/06/25 01:39:54;;;;;;;4.30;2.30;;;19.30;33.10;;;;;;5041903;28;20166;-82
2022/06/25 01:45:06;;;;;;;4.37;2.67;;;19.20;37.80;;;;;;5056755;28;20565;-82
2022/06/25 01:47:31;;;;;;;5.23;2.70;;;19.20;38.10;;;;;;5041008;28;20183;-82
2022/06/25 01:49:57;;;;;;;5.13;2.57;;;19.20;38.60;;;;;;5041983;28;20181;-83
2022/06/25 01:52:24;;;;;;;5.67;2.37;;;19.20;37.00;;;;;;5028751;28;20207;-82
2022/06/25 01:54:49;;;;;;;4.63;2.47;;;19.20;36.40;;;;;;5037144;28;20171;-83
2022/06/25 01:57:16;;;;;;;6.63;2.97;;;19.20;38.20;;;;;;5020633;28;20175;-83
2022/06/25 01:59:44;;;;;;;5.67;2.70;;;19.20;39.20;;;;;;5019520;28;20224;-83
2022/06/25 02:02:09;;;;;;;4.43;2.40;;;19.10;40.00;;;;;;5037586;28;20161;-83
2022/06/25 02:04:38;;;;;;;7.33;2.60;;;19.10;40.30;;;;;;5018811;28;20294;-83
2022/06/25 02:07:05;;;;;;;5.50;2.80;;;19.20;39.80;;;;;;5018349;28;20218;-83
2022/06/25 02:09:31;;;;;;;6.10;2.80;;;19.20;40.90;;;;;;5017827;28;20181;-84
2022/06/25 02:11:56;;;;;;;9.03;3.00;;;19.10;42.20;;;;;;5035805;28;20241;-83
2022/06/25 02:14:22;;;;;;;4.67;2.77;;;19.10;42.40;;;;;;5035558;28;20180;-82
2022/06/25 02:16:48;;;;;;;4.03;2.50;;;19.20;41.20;;;;;;5017978;28;20180;-82
2022/06/25 02:19:14;;;;;;;6.63;2.90;;;19.20;40.10;;;;;;5018349;28;20227;-82
2022/06/25 02:21:39;;;;;;;5.87;3.27;;;19.20;41.60;;;;;;5017817;28;20535;-83
2022/06/25 02:24:05;;;;;;;7.17;3.70;;;19.20;39.70;;;;;;5053413;28;20191;-82
2022/06/25 02:26:31;;;;;;;6.93;3.67;;;19.20;41.10;;;;;;5038598;28;20267;-82
2022/06/25 02:28:57;;;;;;;5.30;3.10;;;19.10;42.10;;;;;;5021439;28;20172;-83
2022/06/25 02:31:22;;;;;;;7.67;3.00;;;19.10;41.80;;;;;;5038411;28;20185;-83
2022/06/25 02:33:49;;;;;;;7.70;2.97;;;19.20;41.60;;;;;;5017616;28;20551;-83
2022/06/25 02:36:15;;;;;;;4.60;3.23;;;19.20;41.10;;;;;;5017602;28;20186;-82
2022/06/25 02:38:40;;;;;;;8.03;3.20;;;19.20;40.40;;;;;;5034724;28;20254;-81
2022/06/25 02:41:06;;;;;;;4.90;3.07;;;19.20;41.60;;;;;;5017141;28;20240;-82
2022/06/25 02:43:32;;;;;;;5.43;2.97;;;19.10;43.60;;;;;;5017550;28;20684;-83
2022/06/25 02:45:57;;;;;;;7.00;3.70;;;18.90;44.20;;;;;;5019283;28;20182;-82
2022/06/25 02:48:23;;;;;;;9.00;4.37;;;19.10;43.80;;;;;;5035751;28;20181;-82
2022/06/25 02:50:49;;;;;;;5.63;3.40;;;19.10;44.20;;;;;;5042374;28;20183;-83
2022/06/25 02:53:14;;;;;;;5.47;3.03;;;19.00;46.20;;;;;;5029157;28;20512;-82
2022/06/25 03:01:15;;;;;;;5.40;3.30;;;18.90;49.50;;;;;;5036361;28;20541;-81
2022/06/25 03:03:40;;;;;;;7.10;3.30;;;18.90;49.80;;;;;;5018783;28;20321;-82
2022/06/25 03:06:06;;;;;;;6.17;4.00;;;18.90;50.70;;;;;;5018272;28;20221;-82
2022/06/25 03:08:32;;;;;;;6.07;3.53;;;18.80;50.90;;;;;;5034883;28;20513;-83
2022/06/25 03:10:58;;;;;;;7.47;3.70;;;18.80;50.60;;;;;;5016896;28;20265;-83
2022/06/25 03:13:23;;;;;;;7.07;3.90;;;18.80;52.20;;;;;;5016711;28;20244;-82
2022/06/25 03:15:49;;;;;;;6.67;3.83;;;18.70;52.90;;;;;;5016738;28;20627;-82
2022/06/25 03:18:15;;;;;;;6.60;3.37;;;18.70;53.60;;;;;;5016746;28;20182;-82
2022/06/25 03:20:40;;;;;;;8.60;3.70;;;18.80;53.40;;;;;;5016742;28;20496;-84
2022/06/25 03:23:06;;;;;;;10.73;3.37;;;18.90;52.40;;;;;;5016811;28;20206;-82
2022/06/25 03:25:32;;;;;;;6.70;3.60;;;18.90;52.00;;;;;;5034408;28;20504;-82
2022/06/25 03:27:58;;;;;;;5.63;3.77;;;18.90;51.50;;;;;;5016637;28;20225;-83
2022/06/25 03:30:24;;;;;;;7.40;3.50;;;18.90;51.10;;;;;;5016311;28;20174;-86
2022/06/25 03:32:50;;;;;;;4.27;2.93;;;18.90;51.70;;;;;;5034373;28;20185;-83
2022/06/25 03:35:16;;;;;;;5.47;3.43;;;18.90;51.40;;;;;;5034834;28;20253;-83
2022/06/25 03:37:42;;;;;;;7.73;4.13;;;18.80;53.10;;;;;;5016546;28;20180;-82
2022/06/25 03:40:09;;;;;;;6.17;3.90;;;18.80;54.40;;;;;;5018204;28;20168;-85
2022/06/25 03:42:34;;;;;;;8.13;4.60;;;18.90;53.80;;;;;;5017885;28;20190;-83
2022/06/25 03:45:00;;;;;;;6.43;4.00;;;18.90;53.30;;;;;;5017375;28;20192;-82
2022/06/25 03:47:26;;;;;;;7.60;3.87;;;19.00;51.30;;;;;;5035165;28;20184;-83
2022/06/25 03:49:53;;;;;;;6.00;3.17;;;18.90;51.00;;;;;;5016775;28;20656;-82
2022/06/25 03:52:19;;;;;;;6.27;3.77;;;19.00;51.80;;;;;;5017052;28;20580;-83
2022/06/25 03:54:45;;;;;;;4.97;3.30;;;19.00;52.40;;;;;;5018322;28;20223;-82
2022/06/25 03:57:11;;;;;;;5.20;3.53;;;18.90;54.00;;;;;;5019565;28;20539;-83
2022/06/25 03:59:36;;;;;;;6.50;3.07;;;18.90;53.60;;;;;;5032706;28;20174;-81
2022/06/25 04:02:02;;;;;;;6.30;3.17;;;18.90;53.60;;;;;;5036345;28;20198;-81
2022/06/25 04:04:28;;;;;;;5.80;3.47;;;19.00;53.10;;;;;;5037199;28;20219;-81
2022/06/25 04:06:54;;;;;;;5.13;3.00;;;19.00;51.80;;;;;;5040569;28;20286;-81
2022/06/25 04:09:19;;;;;;;6.67;3.60;;;19.00;51.40;;;;;;5026748;28;20197;-82
2022/06/25 04:11:45;;;;;;;8.20;3.63;;;19.00;51.10;;;;;;5017698;28;20209;-82
2022/06/25 04:14:11;;;;;;;5.47;3.77;;;19.00;50.80;;;;;;5034735;28;20190;-84
2022/06/25 04:16:36;;;;;;;6.67;3.23;;;19.00;50.70;;;;;;5033218;28;20203;-84
2022/06/25 04:19:02;;;;;;;6.70;3.50;;;19.00;51.70;;;;;;5015821;28;20196;-82
2022/06/25 04:21:28;;;;;;;6.37;3.27;;;19.00;52.70;;;;;;5015234;28;20189;-83
2022/06/25 04:23:53;;;;;;;7.00;3.30;;;18.90;53.10;;;;;;5015124;28;20212;-82
2022/06/25 04:26:19;;;;;;;5.67;3.17;;;19.00;53.80;;;;;;5015401;28;20214;-82
2022/06/25 04:29:03;;;;;;;10.57;9.47;;;19.00;53.60;;;;;;5015296;28;20171;-83
2022/06/25 04:31:30;;;;;;;6.57;2.60;;;19.00;54.10;;;;;;5033627;28;20219;-83
2022/06/25 04:33:56;;;;;;;4.03;2.73;;;19.00;55.10;;;;;;5016213;28;20669;-81
2022/06/25 04:36:21;;;;;;;4.97;2.67;;;19.10;52.60;;;;;;5016604;28;20166;-83
2022/06/25 04:38:48;;;;;;;6.40;2.83;;;19.10;52.00;;;;;;5034364;28;20579;-81
2022/06/25 04:41:14;;;;;;;3.40;2.30;;;19.10;51.80;;;;;;5015497;28;20216;-83
2022/06/25 04:43:40;;;;;;;6.50;2.60;;;19.10;52.60;;;;;;5015137;28;20252;-82
2022/06/25 04:46:06;;;;;;;6.20;2.67;;;19.10;53.20;;;;;;5014969;28;20180;-83
2022/06/25 04:48:32;;;;;;;4.00;2.47;;;19.00;54.90;;;;;;5015422;28;20178;-80
2022/06/25 04:50:57;;;;;;;5.17;2.50;;;19.00;57.20;;;;;;5015020;28;20533;-81
2022/06/25 04:53:23;;;;;;;4.80;2.50;;;19.00;57.90;;;;;;5015163;28;20373;-82
2022/06/25 04:55:49;;;;;;;6.03;2.23;;;19.00;58.10;;;;;;5015046;28;20645;-82
2022/06/25 04:58:15;;;;;;;5.90;3.00;;;19.00;58.70;;;;;;5032680;28;20178;-82
2022/06/25 05:00:40;;;;;;;6.43;2.10;;;19.10;57.00;;;;;;5015577;28;20751;-84
2022/06/25 05:03:07;;;;;;;6.63;2.37;;;19.10;57.00;;;;;;5015055;28;20225;-84
2022/06/25 05:05:33;;;;;;;3.50;2.10;;;19.10;58.20;;;;;;5014859;28;20188;-82
2022/06/25 05:07:59;;;;;;;6.17;2.80;;;19.10;57.80;;;;;;5014738;28;20181;-83
2022/06/25 05:10:26;;;;;;;5.10;1.93;;;19.10;57.00;;;;;;5033143;28;20248;-82
2022/06/25 05:15:36;;;;;;;5.07;2.27;;;19.20;54.70;;;;;;5033255;28;20640;-83
2022/06/25 05:18:02;;;;;;;5.00;2.20;;;19.20;54.30;;;;;;5015039;28;20179;-83
2022/06/25 05:20:28;;;;;;;3.77;2.37;;;19.30;52.60;;;;;;5015115;28;20176;-81
2022/06/25 05:22:53;;;;;;;6.53;2.33;;;19.30;50.40;;;;;;5017919;28;20218;-82
2022/06/25 05:25:19;;;;;;;5.00;2.40;;;19.40;49.30;;;;;;5018785;28;20174;-83
2022/06/25 05:27:45;;;;;;;4.13;2.17;;;19.40;48.30;;;;;;5018274;28;20191;-82
2022/06/25 05:30:11;;;;;;;5.17;2.57;;;19.40;49.20;;;;;;5018279;28;20181;-83
2022/06/25 05:32:36;;;;;;;3.80;1.97;;;19.30;48.20;;;;;;5036597;28;20174;-82
2022/06/25 05:35:03;;;;;;;5.37;2.30;;;19.40;48.70;;;;;;5018305;28;20627;-82
2022/06/25 05:37:28;;;;;;;4.60;2.20;;;19.40;48.60;;;;;;5018749;28;20605;-84
2022/06/25 05:39:54;;;;;;;7.13;2.40;;;19.50;47.40;;;;;;5018178;28;20217;-83
2022/06/25 05:42:20;;;;;;;4.63;2.00;;;19.40;48.30;;;;;;5018490;28;20224;-82
2022/06/25 05:44:49;;;;;;;6.47;2.30;;;19.50;46.20;;;;;;5018482;28;20222;-83
2022/06/25 05:47:14;;;;;;;5.87;2.13;;;19.50;45.70;;;;;;5019025;28;20237;-83
2022/06/25 05:49:40;;;;;;;6.07;2.00;;;19.60;45.90;;;;;;5029730;28;20233;-83
2022/06/25 05:52:06;;;;;;;6.03;1.80;;;19.60;44.60;;;;;;5037765;28;20183;-83
2022/06/25 05:54:32;;;;;;;4.40;2.00;;;19.50;45.20;;;;;;5035022;28;20236;-83
2022/06/25 05:56:57;;;;;;;5.60;1.97;;;19.60;45.30;;;;;;5042818;28;20171;-81
2022/06/25 05:59:23;;;;;;;5.17;1.97;;;19.60;44.20;;;;;;5041312;28;20180;-82
2022/06/25 06:01:50;;;;;;;5.87;1.60;;;19.60;41.40;;;;;;5037964;28;20180;-82
2022/06/25 06:04:55;;;;;;;6.13;1.70;;;19.50;41.60;;;;;;5038316;28;20207;-83
2022/06/25 06:07:28;;;;;;;3.97;1.90;;;19.40;42.80;;;;;;5036406;28;20199;-81
2022/06/25 06:09:57;;;;;;;5.07;1.80;;;19.50;43.40;;;;;;5025763;28;20281;-82
2022/06/25 06:12:24;;;;;;;4.83;2.03;;;19.40;42.30;;;;;;5022806;28;20182;-82
2022/06/25 06:14:50;;;;;;;5.77;2.30;;;19.40;42.90;;;;;;5022830;28;20572;-83
2022/06/25 06:17:15;;;;;;;4.73;2.13;;;19.50;43.60;;;;;;5018883;28;20190;-82
2022/06/25 06:19:41;;;;;;;4.97;2.00;;;19.50;45.50;;;;;;5021005;28;20645;-83
2022/06/25 06:22:07;;;;;;;6.33;1.80;;;19.60;44.50;;;;;;5040959;28;20186;-82
2022/06/25 06:24:33;;;;;;;4.30;1.50;;;19.70;43.40;;;;;;5042688;28;20240;-82
2022/06/25 06:27:00;;;;;;;3.77;1.47;;;19.60;40.00;;;;;;5031869;28;20202;-82
2022/06/25 06:29:25;;;;;;;3.97;1.80;;;19.50;41.10;;;;;;5027302;28;20216;-83
2022/06/25 06:31:57;;;;;;;4.70;1.70;;;19.50;41.60;;;;;;5022217;28;20178;-84
2022/06/25 06:34:26;;;;;;;5.17;1.83;;;19.70;40.50;;;;;;5036573;28;20257;-83
2022/06/25 06:36:52;;;;;;;4.47;1.90;;;19.70;37.10;;;;;;5035142;28;20316;-85
2022/06/25 06:39:18;;;;;;;7.03;1.97;;;19.80;34.90;;;;;;5017620;28;20209;-83
2022/06/25 06:41:43;;;;;;;5.80;1.50;;;19.70;33.20;;;;;;5017794;28;20550;-83
2022/06/25 06:44:09;;;;;;;4.53;1.77;;;19.70;32.80;;;;;;5018235;28;20226;-83
2022/06/25 06:46:35;;;;;;;4.53;1.83;;;19.70;33.80;;;;;;5016917;28;20181;-84
2022/06/25 06:49:01;;;;;;;4.73;1.90;;;19.70;33.20;;;;;;5017470;28;20241;-82
2022/06/25 06:51:26;;;;;;;4.97;2.10;;;19.70;34.50;;;;;;5017496;28;20170;-82
2022/06/25 06:53:53;;;;;;;3.60;1.80;;;19.70;35.10;;;;;;5022008;28;20538;-85
2022/06/25 06:56:19;;;;;;;5.47;1.90;;;19.70;34.50;;;;;;5035831;28;20183;-83
2022/06/25 06:58:44;;;;;;;6.83;2.27;;;19.90;31.30;;;;;;5017034;28;20179;-83
2022/06/25 07:01:10;;;;;;;5.47;2.07;;;20.00;30.10;;;;;;5017185;28;20655;-84
2022/06/25 07:03:36;;;;;;;5.93;1.80;;;20.20;27.50;;;;;;5017575;28;20252;-83
2022/06/25 07:06:03;;;;;;;8.53;2.00;;;20.20;27.90;;;;;;5001243;28;20246;-83
2022/06/25 07:08:28;;;;;;;4.13;1.80;;;20.30;29.00;;;;;;5017431;28;20229;-83
2022/06/25 07:10:54;;;;;;;7.97;1.70;;;20.50;23.70;;;;;;5016646;28;20557;-85
2022/06/25 07:13:20;;;;;;;6.90;2.20;;;20.60;23.70;;;;;;5016961;28;20198;-85
2022/06/25 07:15:46;;;;;;;3.30;1.67;;;20.60;19.80;;;;;;5016751;28;20267;-84
2022/06/25 07:18:11;;;;;;;4.90;2.00;;;20.60;19.10;;;;;;5017974;28;20179;-83
2022/06/25 07:20:37;;;;;;;8.50;2.10;;;20.70;18.20;;;;;;5045401;28;20792;-85
2022/06/25 07:23:03;;;;;;;5.43;2.10;;;20.80;16.70;;;;;;5032388;28;20223;-84
2022/06/25 07:25:29;;;;;;;5.67;2.10;;;20.90;12.70;;;;;;5017367;28;20181;-85
2022/06/25 07:27:54;;;;;;;4.63;1.93;;;21.10;11.10;;;;;;5017748;28;20198;-83
2022/06/25 07:30:21;;;;;;;6.90;2.33;;;21.10;10.00;;;;;;5016432;28;20176;-84
2022/06/25 07:32:47;;;;;;;4.77;2.27;;;21.10;8.80;;;;;;5043430;28;20212;-84
2022/06/25 07:35:12;;;;;;;6.13;2.60;;;21.00;10.40;;;;;;5033976;28;20231;-85
2022/06/25 07:37:38;;;;;;;5.70;2.40;;;20.90;13.10;;;;;;5015838;28;20564;-84
2022/06/25 07:40:05;;;;;;;5.60;2.50;;;20.90;11.80;;;;;;5016217;28;20185;-84
2022/06/25 07:42:31;;;;;;;5.43;2.77;;;20.80;14.20;;;;;;5016150;28;20259;-85
2022/06/25 07:44:58;;;;;;;9.50;2.53;;;20.70;16.30;;;;;;5016278;28;20176;-84
2022/06/25 07:47:24;;;;;;;5.00;2.50;;;20.70;18.20;;;;;;5014287;28;20592;-82
2022/06/25 07:52:33;;;;;;;5.97;3.30;;;20.70;22.80;;;;;;5035405;28;20196;-84
2022/06/25 07:55:03;;;;;;;6.90;3.30;;;20.70;23.70;;;;;;5020583;28;20188;-83
2022/06/25 07:57:29;;;;;;;7.40;3.57;;;20.60;26.30;;;;;;5017893;28;20185;-83
2022/06/25 07:59:55;;;;;;;7.57;3.47;;;20.60;25.10;;;;;;5016256;28;20620;-84
2022/06/25 08:02:21;;;;;;;5.33;2.50;;;20.70;24.60;;;;;;5016369;28;20186;-84
2022/06/25 08:04:46;;;;;;;6.00;2.63;;;20.70;21.90;;;;;;5016328;28;20223;-82
2022/06/25 08:07:12;;;;;;;9.30;3.20;;;20.70;21.40;;;;;;5049499;28;20192;-83
2022/06/25 08:09:38;;;;;;;9.60;2.77;;;20.70;23.80;;;;;;5030634;28;20195;-83
2022/06/25 08:12:04;;;;;;;8.40;2.50;;;20.70;23.40;;;;;;5035671;28;20321;-84
2022/06/25 08:14:30;;;;;;;6.37;2.80;;;20.70;23.60;;;;;;5036234;28;20525;-83
2022/06/25 08:16:56;;;;;;;5.33;2.40;;;20.90;24.00;;;;;;5017057;28;20175;-85
2022/06/25 08:19:22;;;;;;;6.77;2.53;;;21.10;21.90;;;;;;5017299;28;20180;-83
2022/06/25 08:21:48;;;;;;;5.97;2.60;;;21.30;14.10;;;;;;5016551;28;20269;-85
2022/06/25 08:24:13;;;;;;;7.23;2.90;;;21.50;10.00;;;;;;5017295;28;20216;-83
2022/06/25 08:26:41;;;;;;;6.97;2.80;;;21.70;9.40;;;;;;5016220;28;20617;-83
2022/06/25 08:29:07;;;;;;;7.57;2.97;;;22.00;1.00;;;;;;5033317;28;20188;-83
2022/06/25 08:31:32;;;;;;;8.47;3.13;;;22.20;1.00;;;;;;5034295;28;20619;-83
2022/06/25 08:33:58;;;;;;;8.37;3.40;;;22.30;1.00;;;;;;5016984;28;20578;-83
2022/06/25 08:36:24;;;;;;;5.90;3.30;;;22.40;1.00;;;;;;5015080;28;20183;-83
2022/06/25 08:38:51;;;;;;;8.67;3.40;;;22.40;1.00;;;;;;5016106;28;20630;-83
2022/06/25 08:41:18;;;;;;;9.63;3.57;;;22.10;1.00;;;;;;5015602;28;20167;-83
2022/06/25 08:43:44;;;;;;;5.53;3.03;;;21.90;1.00;;;;;;5016128;28;20637;-83
2022/06/25 08:46:14;;;;;;;5.40;2.80;;;21.70;1.00;;;;;;5015490;28;20171;-83
2022/06/25 08:48:42;;;;;;;6.63;3.43;;;21.50;1.00;;;;;;4999756;28;20208;-83
2022/06/25 08:51:08;;;;;;;8.17;3.53;;;21.50;1.00;;;;;;5037921;28;20174;-82
2022/06/25 08:53:34;;;;;;;7.93;3.20;;;21.50;1.00;;;;;;5018562;28;20323;-82
2022/06/25 08:56:02;;;;;;;5.83;3.33;;;21.60;1.00;;;;;;5021046;28;20540;-84
2022/06/25 08:58:28;;;;;;;7.80;3.43;;;21.60;1.00;;;;;;5020354;28;20177;-85
2022/06/25 09:00:54;;;;;;;5.77;3.50;;;21.70;1.00;;;;;;5020376;28;20173;-84
2022/06/25 09:03:20;;;;;;;7.97;3.90;;;21.80;1.00;;;;;;5020420;28;20643;-83
2022/06/25 09:05:46;;;;;;;6.57;3.43;;;21.90;1.00;;;;;;5038183;28;20194;-83
2022/06/25 09:08:14;;;;;;;6.67;2.80;;;21.90;1.00;;;;;;5020300;28;20186;-84
2022/06/25 09:10:44;;;;;;;6.83;2.60;;;21.90;1.00;;;;;;5020281;28;20178;-83
2022/06/25 09:13:11;;;;;;;5.43;2.77;;;21.70;1.00;;;;;;5019811;28;20548;-84
2022/06/25 09:15:43;;;;;;;5.40;2.70;;;21.40;6.90;;;;;;5019309;28;20208;-83
2022/06/25 09:18:17;;;;;;;6.70;3.53;;;21.10;17.90;;;;;;5019204;28;20182;-83
2022/06/25 09:21:03;;;;;;;6.90;3.00;;;21.10;23.00;;;;;;5019389;28;20233;-83
2022/06/25 09:23:32;;;;;;;5.43;3.60;;;21.00;21.90;;;;;;5020351;28;20213;-82
2022/06/25 09:26:09;;;;;;;5.93;3.40;;;21.10;17.40;;;;;;5004685;28;20190;-83
2022/06/25 09:28:42;;;;;;;10.33;3.57;;;21.00;17.60;;;;;;5033738;28;20169;-81
2022/06/25 09:31:09;;;;;;;5.67;3.00;;;20.90;20.50;;;;;;5060292;28;20164;-84
2022/06/25 09:33:37;;;;;;;6.30;3.67;;;20.90;24.30;;;;;;5031819;28;20187;-84
2022/06/25 09:36:03;;;;;;;4.93;3.10;;;21.00;20.10;;;;;;5041575;28;20174;-83
2022/06/25 09:38:32;;;;;;;7.03;3.53;;;21.20;20.90;;;;;;5018523;28;20181;-82
2022/06/25 09:41:00;;;;;;;3.90;2.40;;;21.40;16.60;;;;;;5019743;28;20184;-82
2022/06/25 09:43:35;;;;;;;5.93;3.13;;;21.60;5.60;;;;;;5036243;28;20299;-82
2022/06/25 09:46:06;;;;;;;7.70;3.23;;;21.80;3.10;;;;;;5018542;28;20169;-83
2022/06/25 09:48:35;;;;;;;6.47;2.90;;;22.10;1.00;;;;;;5018732;28;20177;-82
2022/06/25 09:51:09;;;;;;;3.40;2.37;;;21.90;1.00;;;;;;5019429;28;20178;-81
2022/06/25 09:53:46;;;;;;;6.07;2.80;;;22.00;1.00;;;;;;5055585;28;20213;-81
2022/06/25 09:56:15;;;;;;;3.90;2.13;;;22.10;1.00;;;;;;5041546;28;20176;-83
2022/06/25 09:58:42;;;;;;;4.30;2.33;;;22.30;1.00;;;;;;5045113;28;20185;-82
2022/06/25 10:01:08;;;;;;;6.00;2.60;;;22.60;1.00;;;;;;5023176;28;20589;-82
2022/06/25 10:03:36;;;;;;;4.90;2.20;;;22.80;1.00;;;;;;5018977;28;20209;-83
2022/06/25 10:06:18;;;;;;;6.83;2.63;;;22.90;1.00;;;;;;5018483;28;20321;-83
2022/06/25 10:08:53;;;;;;;5.23;2.40;;;22.90;1.00;;;;;;5017873;28;20217;-83
2022/06/25 10:11:22;;;;;;;5.73;2.30;;;22.90;1.00;;;;;;5035441;28;20626;-83
2022/06/25 10:13:48;;;;;;;5.47;2.63;;;22.90;1.00;;;;;;5018373;28;20211;-84
2022/06/25 10:16:20;;;;;;;7.00;2.37;;;22.80;1.00;;;;;;5018257;28;20428;-84
2022/06/25 10:18:49;;;;;;;7.33;2.37;;;22.90;1.00;;;;;;5035731;28;20166;-82
2022/06/25 10:21:15;;;;;;;5.63;2.80;;;23.20;1.00;;;;;;5035507;28;20186;-81
2022/06/25 10:23:42;;;;;;;6.13;2.50;;;23.40;1.00;;;;;;5034581;28;20821;-83
2022/06/25 10:26:09;;;;;;;7.10;2.37;;;23.60;1.00;;;;;;5017224;28;20203;-84
2022/06/25 10:28:35;;;;;;;6.40;2.53;;;23.50;1.00;;;;;;5017534;28;20180;-83
2022/06/25 10:31:13;;;;;;;4.87;1.93;;;23.70;1.00;;;;;;5036539;28;20268;-85
2022/06/25 10:34:00;;;;;;;4.83;2.20;;;23.80;1.00;;;;;;5037107;28;20167;-83
2022/06/25 10:36:58;;;;;;;5.77;2.20;;;24.20;1.00;;;;;;5019077;28;20177;-86
2022/06/25 10:39:33;;;;;;;5.93;2.30;;;24.50;1.00;;;;;;5002188;28;20644;-85
2022/06/25 10:45:15;;;;;;;5.37;2.00;;;24.50;1.00;;;;;;5036910;28;20274;-84
2022/06/25 10:47:46;;;;;;;6.57;2.07;;;24.40;1.00;;;;;;5020142;28;20176;-82
2022/06/25 10:50:21;;;;;;;4.97;1.90;;;24.10;1.00;;;;;;5036752;28;20179;-87
2022/06/25 10:53:13;;;;;;;4.43;2.30;;;23.90;1.00;;;;;;5019215;28;20591;-86
2022/06/25 10:55:39;;;;;;;5.53;2.40;;;23.70;1.00;;;;;;5017242;28;20266;-85
2022/06/25 10:58:22;;;;;;;3.30;1.60;;;23.70;1.00;;;;;;5032737;28;20185;-86
2022/06/25 11:00:58;;;;;;;7.27;1.97;;;23.60;1.00;;;;;;5049661;28;20244;-85
2022/06/25 11:03:27;;;;;;;11.53;6.00;;;23.70;1.00;;;;;;5013388;28;20607;-85
2022/06/25 11:05:54;;;;;;;5.27;1.97;;;23.70;1.00;;;;;;5018864;28;20173;-88
2022/06/25 11:08:22;;;;;;;3.60;2.10;;;23.60;1.00;;;;;;5053389;28;20514;-83
2022/06/25 11:10:49;;;;;;;3.83;1.67;;;23.70;1.00;;;;;;5038459;28;20214;-83
2022/06/25 11:13:16;;;;;;;5.03;1.50;;;23.70;1.00;;;;;;5038389;28;20232;-84
2022/06/25 11:15:44;;;;;;;7.00;2.53;;;23.90;1.00;;;;;;5028503;28;20181;-81
2022/06/25 11:18:13;;;;;;;8.50;2.60;;;24.20;1.00;;;;;;5038595;28;20173;-84
2022/06/25 11:20:39;;;;;;;3.67;1.63;;;24.30;1.00;;;;;;5036346;28;20181;-85
2022/06/25 11:23:09;;;;;;;5.57;1.87;;;24.40;1.00;;;;;;5037917;28;20216;-84
2022/06/25 11:28:48;;;;;;;8.97;3.97;;;24.50;1.00;;;;;;5039760;28;20181;-79
2022/06/25 11:31:34;;;;;;;3.60;2.30;;;24.70;1.00;;;;;;5036922;28;20200;-81
2022/06/25 11:34:17;;;;;;;4.87;1.87;;;25.10;1.00;;;;;;5036418;28;20169;-82
2022/06/25 11:36:43;;;;;;;5.23;1.97;;;25.40;1.00;;;;;;5017955;28;20661;-83
2022/06/25 11:39:15;;;;;;;2.83;1.47;;;25.60;1.00;;;;;;5037424;28;20166;-84
2022/06/25 11:42:00;;;;;;;3.63;1.47;;;25.60;1.00;;;;;;5035742;28;20169;-82
2022/06/25 11:44:26;;;;;;;4.23;1.87;;;25.90;1.00;;;;;;5029335;28;20229;-85
2022/06/25 11:46:52;;;;;;;5.50;1.93;;;25.80;1.00;;;;;;5029350;28;20212;-84
2022/06/25 11:49:20;;;;;;;4.10;1.63;;;25.80;1.00;;;;;;5048995;28;20184;-85
2022/06/25 11:51:48;;;;;;;3.00;1.50;;;25.40;1.00;;;;;;5029692;28;20173;-84
2022/06/25 11:54:16;;;;;;;5.43;1.57;;;25.20;1.00;;;;;;5050693;28;20233;-85
2022/06/25 11:56:55;;;;;;;3.17;1.70;;;25.20;1.00;;;;;;5030682;28;20196;-84
2022/06/25 11:59:29;;;;;;;3.67;1.60;;;25.60;1.00;;;;;;5013647;28;20182;-83
2022/06/25 12:01:56;;;;;;;4.50;1.50;;;25.50;1.00;;;;;;5024698;28;20678;-84
2022/06/25 12:04:22;;;;;;;3.20;1.47;;;25.30;1.00;;;;;;5023484;28;20708;-85
2022/06/25 12:06:49;;;;;;;3.10;1.30;;;25.40;1.00;;;;;;5026490;28;20554;-85
2022/06/25 12:09:18;;;;;;;3.97;1.50;;;25.40;1.00;;;;;;5022215;28;20197;-84
2022/06/25 12:11:51;;;;;;;1.73;1.33;;;25.50;1.00;;;;;;5025423;28;20177;-85
2022/06/25 12:14:29;;;;;;;2.60;1.30;;;25.30;1.00;;;;;;5020632;28;20186;-83
2022/06/25 12:16:55;;;;;;;3.87;1.60;;;25.00;1.00;;;;;;5006017;28;20202;-85
2022/06/25 12:19:22;;;;;;;3.43;1.60;;;24.80;1.00;;;;;;5017984;28;20210;-85
2022/06/25 12:21:48;;;;;;;3.77;1.73;;;24.60;1.00;;;;;;5017874;28;20300;-86
2022/06/25 12:24:16;;;;;;;4.23;1.80;;;24.50;1.00;;;;;;5035896;28;20268;-85
2022/06/25 12:26:51;;;;;;;2.37;1.63;;;24.20;1.00;;;;;;5034357;28;20250;-85
2022/06/25 12:29:24;;;;;;;3.77;1.90;;;24.00;1.00;;;;;;5017669;28;20199;-86
2022/06/25 12:31:56;;;;;;;3.97;2.10;;;23.70;1.00;;;;;;5038033;28;20620;-85
2022/06/25 12:34:24;;;;;;;6.03;2.00;;;23.40;1.00;;;;;;5020652;28;20186;-86
2022/06/25 12:36:51;;;;;;;6.03;2.30;;;23.10;1.00;;;;;;5021375;28;20176;-86
2022/06/25 12:39:33;;;;;;;4.90;1.83;;;22.90;1.00;;;;;;5021083;28;20264;-86
2022/06/25 12:42:07;;;;;;;8.73;2.77;;;22.70;1.00;;;;;;5020766;28;20181;-85
2022/06/25 12:44:35;;;;;;;6.80;2.40;;;22.60;1.00;;;;;;5039143;28;20209;-85
2022/06/25 12:47:07;;;;;;;5.03;2.00;;;22.40;1.00;;;;;;5021788;28;20184;-87
2022/06/25 12:50:02;;;;;;;3.90;2.03;;;22.10;1.00;;;;;;5039079;28;20172;-87
2022/06/25 12:52:38;;;;;;;7.33;3.63;;;21.80;3.70;;;;;;5004101;28;20184;-83
2022/06/25 12:55:06;;;;;;;7.60;2.63;;;21.90;3.20;;;;;;5021899;28;20186;-84
2022/06/25 12:57:37;;;;;;;5.53;2.63;;;21.60;5.50;;;;;;5023236;28;20187;-85
2022/06/25 13:00:25;;;;;;;5.93;2.57;;;21.40;13.60;;;;;;5044246;28;20173;-84
2022/06/25 13:02:53;;;;;;;4.93;2.30;;;21.30;13.90;;;;;;5038360;28;20175;-86
2022/06/25 13:05:19;;;;;;;5.10;2.33;;;21.00;21.40;;;;;;5037364;28;20175;-85
2022/06/25 13:07:51;;;;;;;4.63;2.40;;;20.80;28.50;;;;;;5040650;28;20211;-82
2022/06/25 13:10:32;;;;;;;4.23;2.20;;;20.90;29.30;;;;;;5023451;28;20243;-85
2022/06/25 13:12:58;;;;;;;5.83;2.83;;;20.70;34.90;;;;;;5024163;28;20316;-85
2022/06/25 13:15:25;;;;;;;5.37;2.50;;;20.60;44.50;;;;;;5024049;28;20181;-86
2022/06/25 13:17:52;;;;;;;4.47;2.80;;;20.60;43.50;;;;;;5023186;28;20542;-85